createdAt,value
2022-07-26T00:00:14.140Z,97549.68
2022-07-26T00:03:35.675Z,97549.66
2022-07-26T00:06:38.055Z,97542.30
2022-07-26T00:09:40.506Z,97546.46
2022-07-26T00:12:44.320Z,97540.83
2022-07-26T00:15:47.173Z,97540.81
2022-07-26T00:18:48.713Z,97542.67
2022-07-26T00:22:10.251Z,97542.56
2022-07-26T00:25:11.812Z,97550.74
2022-07-26T00:28:13.445Z,97556.23
2022-07-26T00:31:15.083Z,97551.34
2022-07-26T00:34:16.729Z,97540.16
2022-07-26T00:37:20.627Z,97531.86
2022-07-26T00:40:22.428Z,97532.95
2022-07-26T00:43:24.289Z,97524.98
2022-07-26T00:46:26.105Z,97525.41
2022-07-26T00:49:27.818Z,97518.44
2022-07-26T00:52:29.612Z,97516.58
2022-07-26T00:55:31.446Z,97505.97
2022-07-26T00:58:33.205Z,97504.76
2022-07-26T01:01:34.851Z,97503.18
2022-07-26T01:04:36.680Z,97499.73
2022-07-26T01:07:38.954Z,97489.86
2022-07-26T01:10:43.123Z,97490.59
2022-07-26T01:13:49.756Z,97481.44
2022-07-26T01:16:52.643Z,97473.70
2022-07-26T01:19:54.304Z,97479.35
2022-07-26T01:22:55.872Z,97478.75
2022-07-26T01:25:57.442Z,97474.57
2022-07-26T01:28:59.292Z,97471.80
2022-07-26T01:32:03.343Z,97465.27
2022-07-26T01:35:05.413Z,97465.98
2022-07-26T01:38:07.044Z,97466.02
2022-07-26T01:41:09.322Z,97468.72
2022-07-26T01:44:11.203Z,97466.69
2022-07-26T01:47:13.000Z,97463.73
2022-07-26T01:50:14.696Z,97459.22
2022-07-26T01:53:16.260Z,97456.67
2022-07-26T01:56:17.772Z,97455.30
2022-07-26T01:59:19.341Z,97453.09
2022-07-26T02:02:20.896Z,97448.21
2022-07-26T02:05:22.566Z,97448.39
2022-07-26T02:08:24.153Z,97448.12
2022-07-26T02:11:25.852Z,97441.86
2022-07-26T02:14:28.143Z,97438.04
2022-07-26T02:17:29.802Z,97438.91
2022-07-26T02:20:32.674Z,97438.08
2022-07-26T02:23:35.238Z,97435.55
2022-07-26T02:26:42.281Z,97436.68
2022-07-26T02:29:43.934Z,97435.23
2022-07-26T02:32:45.480Z,97427.83
2022-07-26T02:35:47.666Z,97427.83
2022-07-26T02:38:49.205Z,97422.36
2022-07-26T02:41:50.705Z,97414.23
2022-07-26T02:44:53.459Z,97412.99
2022-07-26T02:47:55.983Z,97410.36
2022-07-26T02:50:57.623Z,97411.34
2022-07-26T02:53:59.254Z,97407.31
2022-07-26T02:57:00.839Z,97406.89
2022-07-26T03:00:03.962Z,97407.27
2022-07-26T03:03:05.567Z,97411.31
2022-07-26T03:06:07.213Z,97410.93
2022-07-26T03:09:08.735Z,97412.89
2022-07-26T03:12:10.265Z,97411.35
2022-07-26T03:15:12.109Z,97406.44
2022-07-26T03:18:13.697Z,97408.02
2022-07-26T03:21:15.198Z,97410.69
2022-07-26T03:24:16.742Z,97411.70
2022-07-26T03:27:18.242Z,97412.80
2022-07-26T03:30:24.881Z,97415.83
2022-07-26T03:33:29.735Z,97411.39
2022-07-26T03:36:31.554Z,97410.43
2022-07-26T03:39:33.142Z,97407.58
2022-07-26T03:42:36.040Z,97400.63
2022-07-26T03:45:37.604Z,97397.45
2022-07-26T03:48:39.207Z,97392.16
2022-07-26T03:51:40.801Z,97386.84
2022-07-26T03:54:42.343Z,97391.80
2022-07-26T03:57:43.911Z,97383.52
2022-07-26T04:00:46.026Z,97382.16
2022-07-26T04:03:47.957Z,97375.54
2022-07-26T04:06:49.639Z,97374.42
2022-07-26T04:09:52.116Z,97374.61
2022-07-26T04:12:53.685Z,97374.39
2022-07-26T04:15:55.541Z,97379.80
2022-07-26T04:18:57.378Z,97376.89
2022-07-26T04:21:58.902Z,97379.61
2022-07-26T04:25:00.413Z,97380.94
2022-07-26T04:28:02.493Z,97385.52
2022-07-26T04:31:03.949Z,97387.97
2022-07-26T04:34:05.834Z,97385.36
2022-07-26T04:37:07.416Z,97390.05
2022-07-26T04:40:10.442Z,97393.98
2022-07-26T04:43:15.609Z,97400.11
2022-07-26T04:46:18.735Z,97426.39
2022-07-26T04:49:20.285Z,97450.80
2022-07-26T04:52:21.809Z,97447.09
2022-07-26T04:55:23.684Z,97450.44
2022-07-26T04:58:25.590Z,97462.86
2022-07-26T05:01:27.225Z,97461.91
2022-07-26T05:04:28.804Z,97486.42
2022-07-26T05:07:48.127Z,97496.92
2022-07-26T05:10:55.250Z,97497.83
2022-07-26T05:13:57.179Z,97488.46
2022-07-26T05:16:58.796Z,97508.20
2022-07-26T05:20:14.201Z,97514.39
2022-07-26T05:23:16.184Z,97511.22
2022-07-26T05:26:17.696Z,97501.77
2022-07-26T05:29:19.192Z,97495.11
2022-07-26T05:32:21.901Z,97492.74
2022-07-26T05:35:23.762Z,97496.32
2022-07-26T05:38:25.370Z,97505.64
2022-07-26T05:41:26.920Z,97503.09
2022-07-26T05:44:28.438Z,97506.84
2022-07-26T05:47:32.176Z,97514.38
2022-07-26T05:50:33.693Z,97525.37
2022-07-26T05:53:35.974Z,97521.57
2022-07-26T05:56:37.756Z,97523.69
2022-07-26T05:59:39.324Z,97523.88
2022-07-26T06:02:41.544Z,97521.65
2022-07-26T06:05:43.149Z,97521.14
2022-07-26T06:08:45.433Z,97522.43
2022-07-26T06:11:46.992Z,97531.46
2022-07-26T06:14:48.570Z,97543.96
2022-07-26T06:17:50.168Z,97550.63
2022-07-26T06:20:51.874Z,97558.86
2022-07-26T06:23:53.515Z,97563.13
2022-07-26T06:27:04.486Z,97567.42
2022-07-26T06:30:07.753Z,97569.97
2022-07-26T06:33:09.527Z,97575.73
2022-07-26T06:36:11.413Z,97588.50
2022-07-26T06:39:13.058Z,97598.08
2022-07-26T06:42:14.731Z,97605.52
2022-07-26T06:45:16.387Z,97612.13
2022-07-26T06:48:18.076Z,97627.61
2022-07-26T06:51:19.605Z,97640.33
2022-07-26T06:54:21.247Z,97642.22
2022-07-26T06:57:22.923Z,97640.52
2022-07-26T07:00:24.563Z,97659.45
2022-07-26T07:03:26.568Z,97667.11
2022-07-26T07:06:28.084Z,97666.17
2022-07-26T07:09:29.660Z,97666.84
2022-07-26T07:12:31.533Z,97682.77
2022-07-26T07:15:33.376Z,97681.30
2022-07-26T07:18:35.239Z,97686.69
2022-07-26T07:21:36.880Z,97695.21
2022-07-26T07:24:39.145Z,97706.56
2022-07-26T07:27:40.893Z,97710.27
2022-07-26T07:30:42.544Z,97716.87
2022-07-26T07:33:53.402Z,97714.62
2022-07-26T07:36:55.434Z,97716.55
2022-07-26T07:39:59.460Z,97713.76
2022-07-26T07:43:01.411Z,97718.23
2022-07-26T07:46:03.072Z,97720.13
2022-07-26T07:49:06.531Z,97719.60
2022-07-26T07:52:08.452Z,97715.36
2022-07-26T07:58:32.234Z,97732.08
2022-07-26T08:01:39.430Z,97752.31
2022-07-26T08:04:42.752Z,97749.47
2022-07-26T08:07:44.387Z,97732.15
2022-07-26T08:10:52.002Z,97728.75
2022-07-26T08:13:54.075Z,97733.58
2022-07-26T08:16:57.337Z,97750.02
2022-07-26T08:20:00.627Z,97762.70
2022-07-26T08:23:05.000Z,97771.73
2022-07-26T08:26:07.081Z,97772.40
2022-07-26T08:29:08.938Z,97771.13
2022-07-26T08:32:10.664Z,97774.08
2022-07-26T08:35:17.327Z,97781.25
2022-07-26T08:38:20.939Z,97788.15
2022-07-26T08:41:22.703Z,97799.98
2022-07-26T08:44:24.276Z,97800.10
2022-07-26T08:47:37.682Z,97798.08
2022-07-26T08:50:44.918Z,97786.98
2022-07-26T08:53:49.595Z,97783.06
2022-07-26T08:56:52.794Z,97798.36
2022-07-26T09:00:14.098Z,97818.56
2022-07-26T09:03:37.211Z,97820.20
2022-07-26T09:06:38.824Z,97809.71
2022-07-26T09:10:00.249Z,97805.38
2022-07-26T09:13:01.823Z,97813.19
2022-07-26T09:16:09.936Z,97817.89
2022-07-26T09:19:22.000Z,97811.84
2022-07-26T09:22:23.735Z,97799.88
2022-07-26T09:25:26.833Z,97786.64
2022-07-26T09:28:31.244Z,97779.86
2022-07-26T09:31:33.742Z,97776.17
2022-07-26T09:34:35.421Z,97774.41
2022-07-26T09:37:39.682Z,97779.40
2022-07-26T09:40:41.790Z,97778.77
2022-07-26T09:43:51.563Z,97792.14
2022-07-26T09:46:57.724Z,97809.16
2022-07-26T09:50:13.416Z,97814.61
2022-07-26T09:53:15.175Z,97824.73
2022-07-26T09:56:18.542Z,97840.16
2022-07-26T09:59:29.368Z,97842.89
2022-07-26T10:02:32.383Z,97854.41
2022-07-26T10:05:34.167Z,97850.16
2022-07-26T10:08:36.250Z,97856.05
2022-07-26T10:11:43.966Z,97867.64
2022-07-26T10:14:51.133Z,97875.05
2022-07-26T10:17:54.163Z,97882.62
2022-07-26T10:20:55.889Z,97886.63
2022-07-26T10:24:02.341Z,97887.94
2022-07-26T10:27:05.573Z,97889.27
2022-07-26T10:30:19.653Z,97899.73
2022-07-26T10:33:24.098Z,97901.28
2022-07-26T10:36:37.978Z,97902.80
2022-07-26T10:39:39.612Z,97901.55
2022-07-26T10:42:45.027Z,97903.76
2022-07-26T10:45:46.952Z,97907.19
2022-07-26T10:49:04.313Z,97916.83
2022-07-26T10:52:06.005Z,97917.14
2022-07-26T10:55:08.354Z,97918.94
2022-07-26T10:58:13.696Z,97926.39
2022-07-26T11:01:16.051Z,97926.09
2022-07-26T11:04:20.327Z,97929.66
2022-07-26T11:07:22.098Z,97930.35
2022-07-26T11:10:35.902Z,97937.54
2022-07-26T11:13:40.131Z,97944.71
2022-07-26T11:16:48.180Z,97934.81
2022-07-26T11:19:58.551Z,97930.36
2022-07-26T11:23:00.814Z,97937.03
2022-07-26T11:26:11.048Z,97938.33
2022-07-26T11:29:25.253Z,97940.58
2022-07-26T11:32:39.340Z,97938.29
2022-07-26T11:35:49.871Z,97941.92
2022-07-26T11:38:54.390Z,97938.87
2022-07-26T11:41:59.089Z,97940.27
2022-07-26T11:45:00.765Z,97938.48
2022-07-26T11:48:04.299Z,97938.36
2022-07-26T11:51:14.477Z,97939.16
2022-07-26T11:54:17.179Z,97939.85
2022-07-26T11:57:19.373Z,97940.35
2022-07-26T12:00:24.455Z,97936.73
2022-07-26T12:03:26.130Z,97934.85
2022-07-26T12:06:28.512Z,97929.67
2022-07-26T12:09:51.543Z,97924.19
2022-07-26T12:13:14.415Z,97919.75
2022-07-26T12:16:41.041Z,97922.67
2022-07-26T12:19:46.515Z,97932.88
2022-07-26T12:23:04.370Z,97934.29
2022-07-26T12:26:26.443Z,97932.38
2022-07-26T12:29:33.541Z,97930.41
2022-07-26T12:32:38.597Z,97929.39
2022-07-26T12:35:40.280Z,97928.48
2022-07-26T12:38:43.469Z,97932.48
2022-07-26T12:41:45.858Z,97935.81
2022-07-26T12:44:47.424Z,97939.79
2022-07-26T12:47:51.151Z,97940.88
2022-07-26T12:50:56.989Z,97941.63
2022-07-26T12:54:06.505Z,97942.89
2022-07-26T12:57:22.898Z,97940.52
2022-07-26T13:00:28.615Z,97944.23
2022-07-26T13:03:31.418Z,97939.90
2022-07-26T13:06:33.167Z,97939.30
2022-07-26T13:09:34.893Z,97946.77
2022-07-26T13:12:36.823Z,97943.20
2022-07-26T13:15:38.537Z,97940.80
2022-07-26T13:18:40.149Z,97944.36
2022-07-26T13:21:42.085Z,97948.95
2022-07-26T13:24:43.752Z,97950.36
2022-07-26T13:27:45.799Z,97946.65
2022-07-26T13:30:47.566Z,97946.61
2022-07-26T13:33:49.245Z,97949.39
2022-07-26T13:36:51.292Z,97950.34
2022-07-26T13:39:52.864Z,97946.55
2022-07-26T13:42:54.509Z,97954.91
2022-07-26T13:45:57.143Z,97958.48
2022-07-26T13:49:01.648Z,97958.66
2022-07-26T13:52:04.096Z,97952.20
2022-07-26T13:55:06.509Z,97952.80
2022-07-26T13:58:10.314Z,97950.79
2022-07-26T14:01:12.152Z,97949.52
2022-07-26T14:04:15.516Z,97948.22
2022-07-26T14:07:17.573Z,97948.48
2022-07-26T14:10:20.508Z,97952.38
2022-07-26T14:13:22.053Z,97956.35
2022-07-26T14:16:26.947Z,97957.36
2022-07-26T14:19:28.857Z,97954.23
2022-07-26T14:22:30.530Z,97947.33
2022-07-26T14:25:33.294Z,97949.49
2022-07-26T14:28:34.978Z,97947.56
2022-07-26T14:31:36.779Z,97946.21
2022-07-26T14:34:38.292Z,97946.19
2022-07-26T14:37:43.473Z,97953.77
2022-07-26T14:40:46.982Z,97957.09
2022-07-26T14:43:54.060Z,97953.23
2022-07-26T14:46:57.381Z,97954.30
2022-07-26T14:50:04.170Z,97962.91
2022-07-26T14:53:10.732Z,97961.80
2022-07-26T14:56:12.274Z,97960.27
2022-07-26T14:59:14.350Z,97960.29
2022-07-26T15:02:15.897Z,97961.30
2022-07-26T15:05:18.514Z,97960.71
2022-07-26T15:08:20.109Z,97957.77
2022-07-26T15:11:21.729Z,97951.58
2022-07-26T15:14:23.773Z,97942.59
2022-07-26T15:17:25.363Z,97939.89
2022-07-26T15:20:26.897Z,97941.48
2022-07-26T15:23:28.897Z,97943.53
2022-07-26T15:26:30.704Z,97942.92
2022-07-26T15:29:32.381Z,97941.61
2022-07-26T15:32:34.777Z,97943.83
2022-07-26T15:35:36.540Z,97947.38
2022-07-26T15:38:39.825Z,97947.73
2022-07-26T15:41:43.104Z,97947.13
2022-07-26T15:44:44.696Z,97951.88
2022-07-26T15:47:59.072Z,97956.98
2022-07-26T15:51:06.148Z,97949.81
2022-07-26T15:54:13.222Z,97951.75
2022-07-26T15:57:15.285Z,97948.09
2022-07-26T16:00:17.285Z,97946.15
2022-07-26T16:03:18.776Z,97945.06
2022-07-26T16:06:20.882Z,97946.23
2022-07-26T16:09:22.393Z,97946.24
2022-07-26T16:12:23.910Z,97946.80
2022-07-26T16:15:25.395Z,97947.81
2022-07-26T16:18:26.900Z,97950.66
2022-07-26T16:21:28.356Z,97946.45
2022-07-26T16:24:30.297Z,97945.01
2022-07-26T16:27:32.066Z,97945.96
2022-07-26T16:30:36.378Z,97945.38
2022-07-26T16:33:38.110Z,97943.23
2022-07-26T16:36:47.928Z,97940.27
2022-07-26T16:39:49.491Z,97941.33
2022-07-26T16:42:51.114Z,97944.83
2022-07-26T16:45:52.619Z,97945.90
2022-07-26T16:48:54.166Z,97942.70
2022-07-26T16:51:56.092Z,97939.34
2022-07-26T16:54:57.564Z,97939.39
2022-07-26T16:57:58.995Z,97932.56
2022-07-26T17:01:01.385Z,97940.11
2022-07-26T17:04:02.918Z,97939.91
2022-07-26T17:10:26.401Z,97943.71
2022-07-26T17:13:27.923Z,97942.37
2022-07-26T17:16:29.561Z,97939.45
2022-07-26T17:19:31.184Z,97937.92
2022-07-26T17:22:32.656Z,97937.73
2022-07-26T17:25:34.278Z,97940.15
2022-07-26T17:28:35.975Z,97929.59
2022-07-26T17:31:37.420Z,97934.46
2022-07-26T17:34:38.847Z,97933.23
2022-07-26T17:37:40.411Z,97931.66
2022-07-26T17:40:42.728Z,97930.99
2022-07-26T17:43:44.384Z,97926.91
2022-07-26T17:46:46.244Z,97927.97
2022-07-26T17:49:48.133Z,97925.33
2022-07-26T17:52:50.279Z,97932.43
2022-07-26T17:55:51.806Z,97932.74
2022-07-26T17:58:53.675Z,97937.67
2022-07-26T18:01:55.469Z,97934.65
2022-07-26T18:04:56.955Z,97932.59
2022-07-26T18:07:58.688Z,97932.14
2022-07-26T18:11:02.198Z,97930.95
2022-07-26T18:14:05.204Z,97933.98
2022-07-26T18:17:06.704Z,97927.98
2022-07-26T18:20:08.485Z,97928.55
2022-07-26T18:23:09.954Z,97925.01
2022-07-26T18:26:11.403Z,97936.21
2022-07-26T18:29:14.603Z,97936.35
2022-07-26T18:32:16.258Z,97942.05
2022-07-26T18:35:17.764Z,97942.09
2022-07-26T18:38:19.520Z,97945.17
2022-07-26T18:41:20.990Z,97947.70
2022-07-26T18:44:22.743Z,97956.35
2022-07-26T18:47:24.345Z,97950.77
2022-07-26T18:50:26.730Z,97956.84
2022-07-26T18:53:32.717Z,97954.86
2022-07-26T18:56:34.139Z,97960.25
2022-07-26T18:59:35.799Z,97965.52
2022-07-26T19:02:38.456Z,97969.05
2022-07-26T19:05:41.202Z,97970.95
2022-07-26T19:08:42.722Z,97974.09
2022-07-26T19:11:47.123Z,97976.41
2022-07-26T19:14:50.267Z,97976.10
2022-07-26T19:17:51.853Z,97977.70
2022-07-26T19:20:53.269Z,97977.70
2022-07-26T19:23:55.102Z,97977.70
2022-07-26T19:26:56.942Z,97982.45
2022-07-26T19:30:00.037Z,97985.09
2022-07-26T19:33:01.711Z,97983.85
2022-07-26T19:36:03.685Z,97984.62
2022-07-26T19:39:05.395Z,97982.36
2022-07-26T19:42:07.606Z,97985.95
2022-07-26T19:45:10.694Z,97983.87
2022-07-26T19:48:12.227Z,97990.40
2022-07-26T19:51:13.731Z,97991.20
2022-07-26T19:54:15.693Z,97995.69
2022-07-26T19:57:18.747Z,98001.93
2022-07-26T20:00:20.365Z,98002.61
2022-07-26T20:03:25.811Z,97999.34
2022-07-26T20:06:27.634Z,97998.49
2022-07-26T20:09:31.590Z,97994.33
2022-07-26T20:12:33.793Z,97994.98
2022-07-26T20:15:35.205Z,97999.11
2022-07-26T20:18:36.781Z,98001.05
2022-07-26T20:21:38.794Z,98004.82
2022-07-26T20:24:44.538Z,98007.39
2022-07-26T20:27:47.624Z,98004.10
2022-07-26T20:30:51.303Z,98007.84
2022-07-26T20:33:55.668Z,98008.24
2022-07-26T20:36:57.834Z,98010.64
2022-07-26T20:39:59.310Z,98009.57
2022-07-26T20:43:02.386Z,98010.54
2022-07-26T20:46:03.981Z,98006.22
2022-07-26T20:49:09.719Z,98009.10
2022-07-26T20:52:11.643Z,98007.23
2022-07-26T20:55:14.487Z,98012.87
2022-07-26T20:58:20.807Z,98010.56
2022-07-26T21:01:23.073Z,98014.53
2022-07-26T21:04:24.511Z,98015.39
2022-07-26T21:07:55.735Z,98013.73
2022-07-26T21:10:52.227Z,98014.38
2022-07-26T21:13:55.516Z,98018.23
2022-07-26T21:16:57.253Z,98020.02
2022-07-26T21:20:02.616Z,98020.29
2022-07-26T21:23:16.911Z,98022.58
2022-07-26T21:26:19.424Z,98021.37
2022-07-26T21:29:21.515Z,98025.59
2022-07-26T21:32:26.064Z,98032.54
2022-07-26T21:35:30.551Z,98031.28
2022-07-26T21:38:32.584Z,98038.58
2022-07-26T21:41:33.939Z,98037.52
2022-07-26T21:44:35.380Z,98035.91
2022-07-26T21:47:36.800Z,98036.21
2022-07-26T21:50:38.155Z,98035.69
2022-07-26T21:53:39.501Z,98035.33
2022-07-26T21:56:40.963Z,98032.48
2022-07-26T21:59:42.336Z,98029.64
2022-07-26T22:02:43.799Z,98030.42
2022-07-26T22:05:46.212Z,98027.25
2022-07-26T22:08:50.249Z,98026.45
2022-07-26T22:11:51.720Z,98025.86
2022-07-26T22:14:53.090Z,98026.05
2022-07-26T22:17:54.476Z,98025.52
2022-07-26T22:20:55.846Z,98025.66
2022-07-26T22:23:57.247Z,98024.80
2022-07-26T22:26:58.617Z,98025.77
2022-07-26T22:30:00.033Z,98029.86
2022-07-26T22:33:02.526Z,98033.63
2022-07-26T22:36:04.080Z,98032.50
2022-07-26T22:39:05.480Z,98027.10
2022-07-26T22:42:15.688Z,98026.16
2022-07-26T22:45:17.440Z,98028.02
2022-07-26T22:48:18.860Z,98030.40
2022-07-26T22:51:20.252Z,98025.71
2022-07-26T22:54:21.601Z,98024.33
2022-07-26T22:57:22.970Z,98026.97
2022-07-26T23:00:24.726Z,98024.29
2022-07-26T23:03:26.148Z,98026.75
2022-07-26T23:06:31.838Z,98022.67
2022-07-26T23:09:33.751Z,98025.55
2022-07-26T23:12:35.251Z,98026.56
2022-07-26T23:15:36.637Z,98022.30
2022-07-26T23:18:38.019Z,98025.52
2022-07-26T23:21:39.438Z,98022.29
2022-07-26T23:24:40.808Z,98026.38
2022-07-26T23:27:45.891Z,98025.96
2022-07-26T23:30:47.365Z,98022.18
2022-07-26T23:33:53.369Z,98024.05
2022-07-26T23:36:56.029Z,98025.06
2022-07-26T23:39:57.492Z,98026.41
2022-07-26T23:42:58.860Z,98031.65
2022-07-26T23:46:00.244Z,98031.80
2022-07-26T23:49:03.983Z,98034.70
2022-07-26T23:52:05.459Z,98036.90
2022-07-26T23:55:07.224Z,98035.82
2022-07-26T23:58:11.944Z,98032.07
